Time;durP1;ratioP1;P1;durP2;ratioP2;P2;SDS_P1;SDS_P2;PMS_P1;PMS_P2;Temp;Humidity;BMP_temperature;BMP_pressure;BME280_temperature;BME280_humidity;BME280_pressure;Samples;Min_cycle;Max_cycle;Signal;HPM_P1;HPM_P2
2021/08/30 00:00:53;;;;;;;3.97;3.33;;;;;;;14.73;100.00;100726.75;5033404;28;20041;-88
2021/08/30 00:03:23;;;;;;;3.80;3.15;;;;;;;14.68;100.00;100734.88;5028835;28;20378;-87
2021/08/30 00:05:53;;;;;;;4.93;3.10;;;;;;;14.64;100.00;100728.81;5020569;28;20033;-86
2021/08/30 00:08:20;;;;;;;6.28;3.90;;;;;;;14.68;100.00;100734.03;5034659;28;20045;-87
2021/08/30 00:10:50;;;;;;;4.82;3.53;;;;;;;14.64;100.00;100719.97;4999446;28;20179;-86
2021/08/30 00:13:19;;;;;;;5.32;3.50;;;;;;;14.62;100.00;100722.66;5011286;28;20087;-86
2021/08/30 00:15:46;;;;;;;4.38;3.55;;;;;;;14.63;100.00;100716.47;5013057;28;20048;-87
2021/08/30 00:18:13;;;;;;;5.35;3.53;;;;;;;14.65;100.00;100721.72;5029473;28;20068;-87
2021/08/30 00:20:40;;;;;;;5.63;3.40;;;;;;;14.62;100.00;100716.50;5042378;28;20040;-87
2021/08/30 00:23:07;;;;;;;4.18;3.13;;;;;;;14.59;100.00;100719.28;5030055;28;20425;-86
2021/08/30 00:25:33;;;;;;;4.75;3.60;;;;;;;14.57;100.00;100722.00;5013137;28;20168;-86
2021/08/30 00:28:00;;;;;;;5.03;3.58;;;;;;;14.55;100.00;100723.84;5023960;28;20044;-87
2021/08/30 00:30:27;;;;;;;5.70;3.30;;;;;;;14.54;100.00;100722.06;5011148;28;20041;-87
2021/08/30 00:32:54;;;;;;;6.55;3.85;;;;;;;14.58;100.00;100725.50;5080917;23;20068;-86
2021/08/30 00:35:20;;;;;;;4.88;3.42;;;;;;;14.57;100.00;100722.00;5009393;28;20040;-86
2021/08/30 00:37:48;;;;;;;4.93;3.80;;;;;;;14.57;100.00;100718.47;4978868;28;20383;-85
2021/08/30 00:40:15;;;;;;;7.10;3.92;;;;;;;14.54;100.00;100716.75;4993619;28;20063;-85
2021/08/30 00:42:46;;;;;;;5.80;4.10;;;;;;;14.53;100.00;100720.34;4994797;28;20137;-85
2021/08/30 00:45:14;;;;;;;4.85;3.75;;;;;;;14.53;100.00;100719.47;5004709;28;20038;-86
2021/08/30 00:47:42;;;;;;;4.47;3.38;;;;;;;14.53;100.00;100720.34;5019470;28;20487;-85
2021/08/30 00:50:11;;;;;;;4.57;3.92;;;;;;;14.55;100.00;100722.97;5011857;28;20049;-85
2021/08/30 00:52:40;;;;;;;5.47;3.70;;;;;;;14.55;100.00;100725.63;5029140;28;20037;-85
2021/08/30 00:55:07;;;;;;;6.28;4.43;;;;;;;14.59;100.00;100727.25;4985808;28;20041;-85
2021/08/30 00:57:34;;;;;;;4.78;3.95;;;;;;;14.57;100.00;100729.97;5009715;28;20041;-85
2021/08/30 01:00:01;;;;;;;6.70;4.53;;;;;;;14.58;100.00;100728.16;4995883;28;20045;-85
2021/08/30 01:02:27;;;;;;;6.05;3.95;;;;;;;14.58;100.00;100729.03;5014054;28;20484;-87
2021/08/30 01:04:54;;;;;;;6.28;4.22;;;;;;;14.57;100.00;100740.59;5012398;28;20045;-85
2021/08/30 01:07:58;;;;;;;5.43;4.55;;;;;;;14.62;100.00;100737.75;5030689;28;20406;-85
2021/08/30 01:10:51;;;;;;;6.35;4.78;;;;;;;14.58;100.00;100731.69;5029214;28;20383;-85
2021/08/30 01:13:25;;;;;;;6.45;4.97;;;;;;;14.62;100.00;100741.28;5010485;28;20108;-86
2021/08/30 01:15:53;;;;;;;7.35;5.30;;;;;;;14.66;100.00;100746.50;4977061;28;20049;-86
2021/08/30 01:18:21;;;;;;;7.65;4.80;;;;;;;14.66;100.00;100743.84;4981214;28;20073;-85
2021/08/30 01:21:18;;;;;;;6.35;4.50;;;;;;;14.62;100.00;100743.94;5000432;28;20052;-86
2021/08/30 01:23:56;;;;;;;6.32;4.80;;;;;;;14.60;100.00;100742.28;4997604;28;20048;-85
2021/08/30 01:26:25;;;;;;;6.00;4.70;;;;;;;14.63;100.00;100737.72;4997061;28;20057;-87
2021/08/30 01:29:03;;;;;;;5.30;4.10;;;;;;;14.60;100.00;100736.94;5012822;28;20509;-87
2021/08/30 01:31:44;;;;;;;7.82;4.72;;;;;;;14.63;100.00;100740.38;5008768;28;20524;-85
2021/08/30 01:34:12;;;;;;;7.93;5.03;;;;;;;14.65;100.00;100729.69;5006602;28;20054;-85
2021/08/30 01:36:39;;;;;;;5.80;4.55;;;;;;;14.62;100.00;100735.09;5009708;28;20648;-86
2021/08/30 01:39:06;;;;;;;6.35;5.18;;;;;;;14.63;100.00;100731.53;4992312;28;20049;-85
2021/08/30 01:41:34;;;;;;;7.93;5.30;;;;;;;14.72;100.00;100730.34;5009720;28;20045;-86
2021/08/30 01:44:01;;;;;;;6.20;5.15;;;;;;;14.67;100.00;100733.16;5008582;28;20096;-86
2021/08/30 01:46:28;;;;;;;6.95;5.35;;;;;;;14.69;100.00;100741.94;4977383;28;20046;-85
2021/08/30 01:48:55;;;;;;;10.15;6.20;;;;;;;14.73;100.00;100738.25;4992483;28;20057;-85
2021/08/30 01:51:24;;;;;;;8.23;5.38;;;;;;;14.78;100.00;100735.41;5009003;28;20038;-85
2021/08/30 01:53:53;;;;;;;8.57;5.25;;;;;;;14.81;100.00;100733.53;5009163;28;20079;-85
2021/08/30 01:56:21;;;;;;;11.25;8.35;;;;;;;14.80;100.00;100738.91;5028056;28;20513;-85
2021/08/30 02:01:36;;;;;;;15.18;9.93;;;;;;;14.75;100.00;100743.53;5028847;28;20041;-84
2021/08/30 02:04:04;;;;;;;16.92;10.02;;;;;;;14.75;100.00;100730.22;5011496;28;20052;-85
2021/08/30 02:06:39;;;;;;;18.20;11.73;;;;;;;14.78;100.00;100732.75;5013926;28;20041;-85
2021/08/30 02:09:05;;;;;;;19.17;10.18;;;;;;;14.85;100.00;100736.94;5011338;28;20319;-86
2021/08/30 02:11:33;;;;;;;13.07;8.88;;;;;;;14.82;100.00;100735.25;5013176;28;20045;-85
2021/08/30 02:14:02;;;;;;;15.38;9.85;;;;;;;14.83;100.00;100733.47;5028811;28;20053;-85
2021/08/30 02:16:29;;;;;;;12.38;8.88;;;;;;;14.75;100.00;100736.41;5014618;28;20042;-85
2021/08/30 02:19:08;;;;;;;12.30;8.10;;;;;;;14.76;100.00;100737.28;5012990;28;20108;-87
2021/08/30 02:21:43;;;;;;;17.98;9.80;;;;;;;14.73;100.00;100742.72;5014101;28;20173;-85
2021/08/30 02:24:21;;;;;;;14.15;9.75;;;;;;;14.71;100.00;100739.22;5015394;28;20107;-86
2021/08/30 02:26:53;;;;;;;16.42;8.95;;;;;;;14.72;100.00;100743.63;5035225;28;20037;-88
2021/08/30 02:29:26;;;;;;;14.45;8.75;;;;;;;14.69;100.00;100733.97;5034642;28;20448;-86
2021/08/30 02:32:04;;;;;;;15.00;9.80;;;;;;;14.69;100.00;100736.63;5011791;28;20053;-87
2021/08/30 02:34:34;;;;;;;19.20;10.98;;;;;;;14.76;100.00;100742.59;5008213;28;20575;-86
2021/08/30 02:37:02;;;;;;;17.25;9.98;;;;;;;14.75;100.00;100735.53;5018588;28;20041;-87
2021/08/30 02:39:29;;;;;;;16.67;9.07;;;;;;;14.72;100.00;100736.53;4997640;28;20096;-88
2021/08/30 02:41:56;;;;;;;17.00;10.85;;;;;;;14.72;100.00;100735.66;5000477;28;20487;-86
2021/08/30 02:44:23;;;;;;;16.80;10.40;;;;;;;14.71;100.00;100740.09;5038358;28;20062;-86
2021/08/30 02:46:50;;;;;;;18.15;10.85;;;;;;;14.71;100.00;100740.09;4997196;28;20095;-85
2021/08/30 02:49:17;;;;;;;18.55;10.40;;;;;;;14.69;100.00;100735.75;4995046;28;20267;-85
2021/08/30 02:51:44;;;;;;;18.77;10.65;;;;;;;14.68;100.00;100742.88;5030104;28;20096;-86
2021/08/30 02:54:12;;;;;;;14.20;9.27;;;;;;;14.63;100.00;100731.53;4998095;28;20049;-86
2021/08/30 02:56:41;;;;;;;16.65;10.05;;;;;;;14.65;100.00;100740.31;5032184;28;20041;-87
2021/08/30 02:59:08;;;;;;;16.70;10.68;;;;;;;14.61;100.00;100728.91;5033161;28;20115;-86
2021/08/30 03:01:35;;;;;;;17.83;10.73;;;;;;;14.66;100.00;100742.06;5018151;28;20046;-87
2021/08/30 03:04:03;;;;;;;17.40;10.48;;;;;;;14.63;100.00;100731.53;5001591;28;20049;-85
2021/08/30 03:06:31;;;;;;;17.60;11.48;;;;;;;14.61;100.00;100739.56;5014901;28;20034;-85
2021/08/30 03:08:57;;;;;;;14.20;9.95;;;;;;;14.61;100.00;100739.56;5034282;28;20056;-85
2021/08/30 03:11:26;;;;;;;17.42;10.40;;;;;;;14.57;100.00;100737.06;5014970;28;20108;-86
2021/08/30 03:13:54;;;;;;;15.23;10.85;;;;;;;14.59;100.00;100730.78;5010842;28;20042;-86
2021/08/30 03:16:22;;;;;;;17.63;10.75;;;;;;;14.68;100.00;100736.69;5005347;28;20076;-86
2021/08/30 03:18:49;;;;;;;17.20;9.75;;;;;;;14.60;100.00;100740.47;4996406;28;20136;-86
2021/08/30 03:21:17;;;;;;;18.15;9.73;;;;;;;14.66;100.00;100739.41;5020525;28;20430;-86
2021/08/30 03:23:43;;;;;;;16.92;10.07;;;;;;;14.63;100.00;100737.72;5010020;28;20103;-86
2021/08/30 03:26:11;;;;;;;16.05;9.73;;;;;;;14.61;100.00;100739.56;5014862;28;20042;-86
2021/08/30 03:28:38;;;;;;;13.90;9.15;;;;;;;14.59;100.00;100736.09;5012748;28;20050;-85
2021/08/30 03:31:05;;;;;;;16.83;9.23;;;;;;;14.59;100.00;100737.88;4995365;28;20522;-86
2021/08/30 03:33:33;;;;;;;15.80;10.07;;;;;;;14.66;100.00;100742.06;5019249;28;20514;-86
2021/08/30 03:36:00;;;;;;;14.23;8.52;;;;;;;14.75;100.00;100746.19;5014348;28;20129;-86
2021/08/30 03:38:28;;;;;;;14.30;9.63;;;;;;;14.69;100.00;100746.38;5001451;28;20418;-87
2021/08/30 03:40:55;;;;;;;13.65;8.65;;;;;;;14.68;100.00;100747.31;5016694;28;20071;-86
2021/08/30 03:43:22;;;;;;;14.30;7.90;;;;;;;14.66;100.00;100750.03;5014247;28;20042;-86
2021/08/30 03:45:49;;;;;;;11.48;8.25;;;;;;;14.63;100.00;100740.38;4984651;28;20034;-86
2021/08/30 03:48:17;;;;;;;13.35;8.07;;;;;;;14.66;100.00;100746.50;5007394;28;20046;-86
2021/08/30 03:50:44;;;;;;;13.05;8.00;;;;;;;14.69;100.00;100747.25;5015771;28;20047;-86
2021/08/30 03:53:12;;;;;;;10.30;7.00;;;;;;;14.66;100.00;100746.50;5015922;28;20045;-86
2021/08/30 03:55:39;;;;;;;10.88;6.75;;;;;;;14.72;100.00;100743.63;5013584;28;20548;-85
2021/08/30 03:58:09;;;;;;;9.85;6.50;;;;;;;14.62;100.00;100751.91;5003992;28;20046;-86
2021/08/30 04:00:36;;;;;;;10.93;7.45;;;;;;;14.60;100.00;100744.94;4997140;28;20046;-86
2021/08/30 04:03:03;;;;;;;12.18;6.88;;;;;;;14.62;100.00;100748.41;5033577;28;20041;-87
2021/08/30 04:05:31;;;;;;;13.88;7.05;;;;;;;14.75;100.00;100755.03;5016305;28;20052;-86
2021/08/30 04:08:01;;;;;;;8.45;6.22;;;;;;;14.66;100.00;100751.81;4997829;28;20044;-86
2021/08/30 04:10:29;;;;;;;10.68;7.07;;;;;;;14.60;100.00;100752.91;5004967;28;20077;-86
2021/08/30 04:12:57;;;;;;;13.90;8.02;;;;;;;14.67;100.00;100758.88;5014053;28;20107;-85
2021/08/30 04:15:24;;;;;;;10.10;6.85;;;;;;;14.71;100.00;100760.50;5011925;28;20046;-86
2021/08/30 04:17:50;;;;;;;12.35;6.68;;;;;;;14.66;100.00;100758.00;4997923;28;20038;-87
2021/08/30 04:20:17;;;;;;;13.65;8.20;;;;;;;14.55;100.00;100760.19;5003655;28;20053;-87
2021/08/30 04:22:44;;;;;;;11.27;6.82;;;;;;;14.54;100.00;100763.75;5025038;28;20042;-86
2021/08/30 04:25:13;;;;;;;11.90;6.72;;;;;;;14.60;100.00;100763.53;5020336;28;20453;-86
2021/08/30 04:27:47;;;;;;;11.63;6.72;;;;;;;14.58;100.00;100768.91;5015125;28;20069;-86
2021/08/30 04:30:13;;;;;;;10.40;7.18;;;;;;;14.57;100.00;100772.50;5009248;28;20045;-87
2021/08/30 04:32:40;;;;;;;13.43;7.68;;;;;;;14.60;100.00;100774.19;4998348;28;20050;-86
2021/08/30 04:35:08;;;;;;;10.65;6.80;;;;;;;14.67;100.00;100774.84;4998136;28;20213;-86
2021/08/30 04:37:34;;;;;;;10.48;7.75;;;;;;;14.62;100.00;100770.53;5033781;28;20045;-87
2021/08/30 04:40:01;;;;;;;11.50;7.57;;;;;;;14.60;100.00;100775.03;5016125;28;20045;-86
2021/08/30 04:42:27;;;;;;;9.88;6.47;;;;;;;14.59;100.00;100777.75;5034257;28;20053;-88
2021/08/30 04:44:56;;;;;;;12.73;7.53;;;;;;;14.61;100.00;100770.59;4989083;28;20550;-86
2021/08/30 04:47:22;;;;;;;14.43;8.55;;;;;;;14.67;100.00;100769.53;5015977;28;20046;-86
2021/08/30 04:49:52;;;;;;;11.68;7.47;;;;;;;14.68;100.00;100773.91;4996818;28;20046;-86
2021/08/30 04:52:19;;;;;;;11.90;7.78;;;;;;;14.67;100.00;100780.16;4998343;28;20086;-86
2021/08/30 04:54:46;;;;;;;13.60;8.30;;;;;;;14.66;100.00;100773.97;4989972;28;20115;-87
2021/08/30 04:57:12;;;;;;;11.30;7.50;;;;;;;14.69;100.00;100778.31;5012405;28;20042;-86
2021/08/30 04:59:39;;;;;;;11.52;7.63;;;;;;;14.70;100.00;100774.72;5002228;28;20100;-87
2021/08/30 05:02:06;;;;;;;12.52;7.95;;;;;;;14.72;100.00;100773.75;5005902;28;20071;-87
2021/08/30 05:04:33;;;;;;;15.85;8.70;;;;;;;14.72;100.00;100772.91;5016898;28;20115;-87
2021/08/30 05:06:59;;;;;;;12.55;7.57;;;;;;;14.76;100.00;100780.69;5001534;28;20049;-86
2021/08/30 05:09:26;;;;;;;11.73;7.25;;;;;;;14.69;100.00;100773.84;5015708;28;20556;-86
2021/08/30 05:11:52;;;;;;;11.35;7.63;;;;;;;14.72;100.00;100779.06;5017596;28;20068;-87
2021/08/30 05:14:20;;;;;;;11.18;7.72;;;;;;;14.70;100.00;100780.91;5016246;28;20118;-87
2021/08/30 05:16:47;;;;;;;10.98;7.38;;;;;;;14.67;100.00;100781.03;5029860;28;20045;-87
2021/08/30 05:19:14;;;;;;;10.63;7.25;;;;;;;14.68;100.00;100777.44;4993715;28;20050;-87
2021/08/30 05:21:40;;;;;;;12.35;8.65;;;;;;;14.82;100.00;100779.63;5017221;28;20038;-87
2021/08/30 05:24:07;;;;;;;11.65;7.45;;;;;;;14.80;100.00;100784.13;5028675;28;20049;-87
2021/08/30 05:26:34;;;;;;;10.90;7.85;;;;;;;14.80;100.00;100784.13;5014003;28;20112;-87
2021/08/30 05:29:01;;;;;;;10.43;7.43;;;;;;;14.76;100.00;100779.81;5020336;28;20042;-88
2021/08/30 05:31:28;;;;;;;10.25;6.85;;;;;;;14.71;100.00;100781.75;4991898;28;20084;-87
2021/08/30 05:33:57;;;;;;;8.13;6.50;;;;;;;14.71;100.00;100793.28;4989392;28;20060;-87
2021/08/30 05:36:24;;;;;;;10.60;7.13;;;;;;;14.75;100.00;100788.72;4995937;28;20038;-86
2021/08/30 05:38:52;;;;;;;8.52;6.45;;;;;;;14.71;100.00;100789.75;4980287;28;20050;-87
2021/08/30 05:41:19;;;;;;;9.93;6.05;;;;;;;14.70;100.00;100782.69;5009087;28;20136;-86
2021/08/30 05:43:46;;;;;;;8.23;6.43;;;;;;;14.71;100.00;100793.28;5010046;28;20517;-87
2021/08/30 05:46:16;;;;;;;9.07;6.25;;;;;;;14.69;100.00;100794.25;5009440;28;20033;-86
2021/08/30 05:48:47;;;;;;;10.00;6.53;;;;;;;14.73;100.00;100799.44;4994578;28;20033;-86
2021/08/30 05:51:13;;;;;;;9.88;6.40;;;;;;;14.76;100.00;100791.34;4992940;28;20549;-86
2021/08/30 05:53:40;;;;;;;8.75;6.10;;;;;;;14.83;100.00;100794.66;5010811;28;20048;-86
2021/08/30 05:56:08;;;;;;;8.25;5.82;;;;;;;14.81;100.00;100796.50;5011524;28;20506;-86
2021/08/30 05:58:36;;;;;;;8.65;5.78;;;;;;;14.82;100.00;100796.44;5028901;28;20049;-86
2021/08/30 06:01:03;;;;;;;8.55;5.47;;;;;;;14.81;100.00;100800.03;4994921;28;20121;-85
2021/08/30 06:03:31;;;;;;;9.02;6.55;;;;;;;14.86;100.00;100792.72;5028778;28;20410;-86
2021/08/30 06:05:58;;;;;;;7.72;5.85;;;;;;;14.91;100.00;100795.25;5011739;28;20049;-88
2021/08/30 06:08:25;;;;;;;7.60;5.93;;;;;;;14.95;100.00;100802.16;4992627;28;20045;-86
2021/08/30 06:10:52;;;;;;;7.57;5.05;;;;;;;14.95;100.00;100802.16;5003864;28;20046;-86
2021/08/30 06:13:19;;;;;;;8.18;5.70;;;;;;;14.97;100.00;100802.13;4976725;28;20050;-88
2021/08/30 06:15:46;;;;;;;8.10;5.75;;;;;;;14.99;100.00;100798.50;5015656;28;20037;-86
2021/08/30 06:18:12;;;;;;;8.85;5.65;;;;;;;15.02;100.00;100798.38;4982771;28;20107;-87
2021/08/30 06:20:39;;;;;;;8.23;5.40;;;;;;;14.99;100.00;100798.50;5011432;28;20878;-86
2021/08/30 06:23:06;;;;;;;8.13;5.38;;;;;;;15.00;100.00;100794.91;5012772;28;20104;-87
2021/08/30 06:25:32;;;;;;;9.95;5.18;;;;;;;14.91;100.00;100795.25;4992154;28;20041;-85
2021/08/30 06:27:59;;;;;;;7.20;5.20;;;;;;;14.95;100.00;100793.31;5012985;28;20524;-87
2021/08/30 06:30:26;;;;;;;5.75;4.70;;;;;;;15.07;100.00;100798.22;4995814;28;20088;-85
2021/08/30 06:32:53;;;;;;;8.50;5.40;;;;;;;15.01;100.00;100801.94;5033399;28;20045;-88
2021/08/30 06:35:20;;;;;;;6.82;4.70;;;;;;;15.09;100.00;100793.69;5033479;28;20128;-86
2021/08/30 06:43:22;;;;;;;6.45;5.40;;;;;;;15.09;100.00;100794.56;5025186;28;20138;-87
2021/08/30 06:45:49;;;;;;;6.30;4.40;;;;;;;15.11;100.00;100803.34;5003860;28;20055;-87
2021/08/30 06:48:16;;;;;;;5.85;4.97;;;;;;;15.13;100.00;100795.31;4996557;28;20048;-87
2021/08/30 06:50:42;;;;;;;5.65;4.45;;;;;;;15.05;100.00;100797.38;5011239;28;20421;-87
2021/08/30 06:53:12;;;;;;;5.65;4.25;;;;;;;15.01;100.00;100793.97;4996603;28;20041;-87
2021/08/30 06:55:39;;;;;;;6.68;4.40;;;;;;;15.13;100.00;100793.53;5002480;28;20045;-88
2021/08/30 06:58:06;;;;;;;6.43;4.13;;;;;;;15.11;100.00;100789.19;5013451;28;20087;-87
2021/08/30 07:00:33;;;;;;;5.35;4.22;;;;;;;15.07;100.00;100799.06;4996574;28;20048;-87
2021/08/30 07:03:00;;;;;;;5.70;4.20;;;;;;;15.08;100.00;100800.81;5010973;28;20509;-87
2021/08/30 07:05:28;;;;;;;5.40;3.97;;;;;;;15.10;100.00;100803.41;5003597;28;20040;-86
2021/08/30 07:07:54;;;;;;;6.22;4.28;;;;;;;15.16;100.00;100805.84;4999167;28;20049;-88
2021/08/30 07:10:21;;;;;;;5.78;3.83;;;;;;;15.23;100.00;100798.50;5014057;28;20128;-88
2021/08/30 07:12:48;;;;;;;6.45;3.65;;;;;;;15.23;100.00;100798.50;5002586;28;20048;-88
2021/08/30 07:15:15;;;;;;;4.97;3.95;;;;;;;15.27;100.00;100792.13;4992502;28;20660;-87
2021/08/30 07:17:42;;;;;;;5.53;3.83;;;;;;;15.28;100.00;100797.41;5002026;28;20045;-86
2021/08/30 07:20:09;;;;;;;4.40;3.95;;;;;;;15.33;100.00;100794.56;5012011;28;20044;-88
2021/08/30 07:22:36;;;;;;;4.30;3.53;;;;;;;15.36;100.00;100797.09;5009569;28;20506;-86
2021/08/30 07:25:03;;;;;;;6.07;4.47;;;;;;;15.41;100.00;100803.13;5014503;28;20103;-87
2021/08/30 07:27:29;;;;;;;4.20;3.50;;;;;;;15.45;100.00;100802.06;4983258;28;20045;-85
2021/08/30 07:29:56;;;;;;;5.85;4.28;;;;;;;15.47;100.00;100800.25;5006108;28;20052;-86
2021/08/30 07:32:23;;;;;;;4.75;3.50;;;;;;;15.53;100.00;100802.66;5001993;28;20049;-86
2021/08/30 07:34:49;;;;;;;5.03;3.85;;;;;;;15.58;100.00;100800.69;5014023;28;20079;-85
2021/08/30 07:37:16;;;;;;;3.80;3.25;;;;;;;15.56;100.00;100802.56;5008982;28;20537;-85
2021/08/30 07:39:43;;;;;;;5.03;4.10;;;;;;;15.66;100.00;100811.94;4988997;28;20037;-86
2021/08/30 07:42:09;;;;;;;5.45;3.80;;;;;;;15.66;100.00;100805.75;5002004;28;20048;-85
2021/08/30 07:44:36;;;;;;;6.05;4.20;;;;;;;15.61;100.00;100813.91;4997193;28;20065;-86
2021/08/30 07:47:05;;;;;;;5.22;4.10;;;;;;;15.77;100.00;100809.72;4995509;28;20033;-86
2021/08/30 07:49:32;;;;;;;5.47;4.72;;;;;;;15.78;100.00;100815.91;5000023;28;20047;-87
2021/08/30 07:51:59;;;;;;;4.95;4.28;;;;;;;15.78;100.00;100818.56;4999363;28;20081;-87
2021/08/30 07:54:26;;;;;;;5.13;4.35;;;;;;;15.91;100.00;100814.50;5015359;28;20057;-87
2021/08/30 07:56:53;;;;;;;5.47;4.20;;;;;;;16.02;100.00;100814.94;5012229;28;20205;-87
2021/08/30 07:59:20;;;;;;;5.97;4.10;;;;;;;15.92;100.00;100820.72;5005112;28;20052;-87
2021/08/30 08:01:47;;;;;;;5.75;3.90;;;;;;;15.95;100.00;100815.25;5011601;28;20055;-85
2021/08/30 08:04:14;;;;;;;4.00;3.50;;;;;;;15.97;100.00;100819.56;5018460;28;20051;-84
2021/08/30 08:06:42;;;;;;;5.57;4.30;;;;;;;16.12;100.00;100822.56;5015625;28;20226;-86
2021/08/30 08:09:08;;;;;;;5.95;4.15;;;;;;;16.18;100.00;100822.31;4995873;28;20563;-85
2021/08/30 08:11:35;;;;;;;6.28;4.10;;;;;;;16.19;100.00;100822.25;5037476;28;20050;-84
2021/08/30 08:14:02;;;;;;;5.25;3.80;;;;;;;16.22;100.00;100824.78;5012733;28;20064;-85
2021/08/30 08:16:32;;;;;;;4.43;3.60;;;;;;;16.10;100.00;100843.94;5038844;28;20052;-85
2021/08/30 08:19:03;;;;;;;4.88;3.75;;;;;;;16.05;100.00;100837.91;5024127;28;20052;-85
2021/08/30 08:21:34;;;;;;;5.18;3.72;;;;;;;16.04;100.00;100838.84;5003237;28;20056;-85
2021/08/30 08:24:02;;;;;;;4.47;3.83;;;;;;;16.05;100.00;100837.91;5044284;28;20045;-85
2021/08/30 08:26:28;;;;;;;4.57;3.83;;;;;;;16.08;100.00;100842.28;5003829;28;20047;-86
2021/08/30 08:28:55;;;;;;;5.05;3.83;;;;;;;16.17;100.00;100840.13;5020061;28;20057;-86
2021/08/30 08:31:22;;;;;;;6.35;3.97;;;;;;;16.08;100.00;100840.50;5028239;28;20046;-85
2021/08/30 08:33:49;;;;;;;5.60;3.65;;;;;;;16.25;100.00;100838.00;5026294;28;20041;-85
2021/08/30 08:36:16;;;;;;;5.22;3.70;;;;;;;16.38;100.00;100842.81;5006581;28;20045;-84
2021/08/30 08:38:43;;;;;;;5.30;3.55;;;;;;;16.40;100.00;100839.16;4998623;28;20064;-87
2021/08/30 08:41:10;;;;;;;4.38;3.67;;;;;;;16.35;100.00;100842.94;4999916;28;20047;-87
2021/08/30 08:43:37;;;;;;;3.67;3.17;;;;;;;16.35;100.00;100843.81;5002651;28;20049;-85
2021/08/30 08:46:03;;;;;;;5.18;3.88;;;;;;;16.38;100.00;100846.34;5010642;28;20041;-85
2021/08/30 08:48:30;;;;;;;5.05;3.28;;;;;;;16.41;100.00;100846.22;5004138;28;20045;-86
2021/08/30 08:50:57;;;;;;;4.45;3.47;;;;;;;16.35;100.00;100846.47;5001790;28;20053;-86
2021/08/30 08:53:24;;;;;;;4.07;3.28;;;;;;;16.40;100.00;100852.50;5023922;28;20042;-85
2021/08/30 08:55:51;;;;;;;4.95;3.50;;;;;;;16.47;100.00;100843.28;5016672;28;20072;-84
2021/08/30 08:58:20;;;;;;;5.63;3.80;;;;;;;16.52;100.00;100841.31;5016618;28;20032;-86
2021/08/30 09:01:03;;;;;;;3.70;3.30;;;;;;;16.53;100.00;100840.38;5010365;28;20584;-86
2021/08/30 09:03:30;;;;;;;4.47;3.53;;;;;;;16.58;100.00;100843.72;5014087;28;20047;-86
2021/08/30 09:06:02;;;;;;;4.50;3.78;;;;;;;16.73;100.00;100839.56;5029949;28;20083;-85
2021/08/30 09:08:32;;;;;;;4.97;3.28;;;;;;;16.67;100.00;100839.81;5022139;28;20033;-86
2021/08/30 09:10:59;;;;;;;5.00;3.70;;;;;;;16.72;100.00;100837.81;5008715;28;20049;-85
2021/08/30 09:13:30;;;;;;;5.50;3.80;;;;;;;16.77;100.00;100843.84;5005239;28;20041;-85
2021/08/30 09:15:57;;;;;;;5.57;3.80;;;;;;;16.93;100.00;100843.19;5004206;28;20049;-85
2021/08/30 09:18:31;;;;;;;3.80;3.20;;;;;;;16.90;100.00;100833.50;5006775;28;20033;-86
2021/08/30 09:21:09;;;;;;;4.07;3.28;;;;;;;16.79;100.00;100849.97;5007979;28;20049;-85
2021/08/30 09:23:38;;;;;;;5.40;3.70;;;;;;;16.79;100.00;100844.63;5018054;28;20033;-84
2021/08/30 09:26:04;;;;;;;5.50;3.80;;;;;;;16.68;100.00;100838.00;5006416;28;20045;-86
2021/08/30 09:28:33;;;;;;;4.63;4.15;;;;;;;16.59;100.00;100844.59;5012998;28;20036;-86
2021/08/30 09:31:01;;;;;;;4.10;3.60;;;;;;;16.56;100.00;100837.59;5010385;28;20127;-85
2021/08/30 09:33:28;;;;;;;5.75;3.83;;;;;;;16.54;100.00;100835.91;5024445;28;20045;-84
2021/08/30 09:35:59;;;;;;;5.05;3.60;;;;;;;16.52;100.00;100835.97;5019690;28;20049;-85
2021/08/30 09:38:27;;;;;;;5.97;4.10;;;;;;;16.53;100.00;100843.03;4990428;28;20037;-87
2021/08/30 09:41:06;;;;;;;5.95;4.00;;;;;;;16.42;100.00;100842.63;5002363;28;20048;-86
2021/08/30 09:43:33;;;;;;;6.55;3.92;;;;;;;16.42;100.00;100841.78;5016740;28;20057;-86
2021/08/30 09:46:06;;;;;;;4.55;3.90;;;;;;;16.43;100.00;100841.69;4999969;28;20060;-86
2021/08/30 09:48:35;;;;;;;6.53;3.88;;;;;;;16.49;100.00;100829.91;5005517;28;20077;-86
2021/08/30 09:51:08;;;;;;;5.40;4.63;;;;;;;16.44;100.00;100837.22;4980996;28;20045;-88
2021/08/30 09:53:36;;;;;;;9.85;5.10;;;;;;;16.43;100.00;100835.50;4996854;28;20049;-88
2021/08/30 09:56:07;;;;;;;7.38;4.80;;;;;;;16.38;100.00;100833.00;5011678;28;20047;-86
2021/08/30 09:58:35;;;;;;;6.70;4.70;;;;;;;16.38;100.00;100832.16;4988471;28;20045;-88
2021/08/30 10:01:05;;;;;;;5.72;4.53;;;;;;;16.30;100.00;100828.00;5008366;28;20037;-87
2021/08/30 10:03:40;;;;;;;5.70;4.00;;;;;;;16.44;100.00;100827.44;5019099;28;20133;-87
2021/08/30 10:06:08;;;;;;;;;;;;;;;16.44;100.00;100821.22;5000445;28;20049;-88
2021/08/30 10:08:39;;;;;;;6.15;4.00;;;;;;;16.54;100.00;100819.91;5034245;28;19921;-87
2021/08/30 10:11:09;;;;;;;8.38;4.93;;;;;;;16.68;100.00;100828.19;5015584;28;20043;-87
2021/08/30 10:13:36;;;;;;;11.00;9.65;;;;;;;16.83;100.00;100824.91;5012763;28;20103;-87
2021/08/30 10:16:04;;;;;;;7.80;5.50;;;;;;;17.02;100.00;100824.09;4981411;28;20060;-89
2021/08/30 10:18:31;;;;;;;7.75;4.78;;;;;;;17.13;100.00;100817.31;5013847;28;20513;-87
2021/08/30 10:20:57;;;;;;;6.50;4.10;;;;;;;17.24;100.00;100821.31;4993311;28;20049;-88
2021/08/30 10:23:35;;;;;;;6.22;4.20;;;;;;;17.22;100.00;100825.84;4998792;28;20056;-87
2021/08/30 10:26:04;;;;;;;6.50;4.85;;;;;;;17.26;100.00;100822.97;5004191;28;20395;-87
2021/08/30 10:28:36;;;;;;;5.55;4.30;;;;;;;17.30;100.00;100819.22;5004856;28;20033;-85
2021/08/30 10:31:25;;;;;;;7.85;4.75;;;;;;;17.46;100.00;100819.38;4996337;28;20613;-86
2021/08/30 10:33:55;;;;;;;6.45;4.00;;;;;;;17.57;100.00;100818.88;5007848;28;20036;-86
2021/08/30 10:36:24;;;;;;;5.40;4.32;;;;;;;17.59;100.00;100822.38;5003471;28;20043;-87
2021/08/30 10:39:05;;;;;;;4.90;4.10;;;;;;;17.54;100.00;100814.56;5000300;28;20048;-87
2021/08/30 10:41:40;;;;;;;6.32;4.43;;;;;;;17.67;100.00;100817.53;5002946;28;20099;-88
2021/08/30 10:44:17;;;;;;;4.70;4.05;;;;;;;17.62;100.00;100809.72;5017619;28;20043;-88
2021/08/30 10:46:54;;;;;;;4.97;4.50;;;;;;;17.60;100.00;100816.06;5036796;28;20061;-87
2021/08/30 10:49:28;;;;;;;5.10;3.90;;;;;;;17.48;100.00;100811.28;5003177;28;20048;-88
2021/08/30 10:52:06;;;;;;;5.55;4.55;;;;;;;17.61;100.00;100823.16;5000264;28;20045;-87
2021/08/30 10:54:34;;;;;;;5.00;4.35;;;;;;;17.63;100.00;100823.94;4999870;28;20045;-89
2021/08/30 10:57:06;;;;;;;5.32;3.58;;;;;;;17.60;100.00;100826.75;5011895;28;20051;-86
2021/08/30 10:59:34;;;;;;;4.82;3.63;;;;;;;17.53;100.00;100822.66;4991291;28;20037;-88
2021/08/30 11:02:06;;;;;;;5.93;3.50;;;;;;;17.54;100.00;100825.25;5017082;28;20040;-87
2021/08/30 11:04:35;;;;;;;4.55;3.55;;;;;;;17.70;100.00;100830.75;5003109;28;20041;-89
2021/08/30 11:07:05;;;;;;;4.90;4.07;;;;;;;17.82;100.00;100821.28;5014669;28;20052;-87
2021/08/30 11:09:32;;;;;;;4.45;3.50;;;;;;;17.89;100.00;100830.75;5014310;28;20033;-87
2021/08/30 11:12:09;;;;;;;5.57;3.83;;;;;;;17.97;100.00;100820.56;5015007;28;20048;-88
2021/08/30 11:14:36;;;;;;;4.07;3.30;;;;;;;17.96;100.00;100821.50;5014520;28;20037;-87
2021/08/30 11:17:03;;;;;;;5.25;3.95;;;;;;;17.98;100.00;100833.84;5016655;28;20053;-87
2021/08/30 11:19:30;;;;;;;8.15;3.30;;;;;;;17.86;100.00;100825.56;4986918;28;20033;-87
2021/08/30 11:21:59;;;;;;;4.85;3.67;;;;;;;17.96;100.00;100824.16;5015876;28;20057;-87
2021/08/30 11:24:37;;;;;;;5.38;3.95;;;;;;;17.96;100.00;100835.72;5003937;28;20596;-88
2021/08/30 11:27:26;;;;;;;5.38;4.15;;;;;;;17.91;100.00;100834.25;5032715;28;20088;-88
2021/08/30 11:29:55;;;;;;;6.13;4.13;;;;;;;17.81;100.00;100836.47;5018328;28;20037;-87